Terminal Aerodrome Forecast
Issued by NWS Portland, OR

Home | Current Version | Previous Version | Text Only | Print | Product List | Glossary On
Versions: 1 2 3 4 5 6 7 8 9 10 11 12 13 14 15 16 17 18 19 20 21 22 23
000
FTUS46 KPQR 240532
TAFHIO
TAF
KHIO 240532Z 2406/2506 VRB03KT P6SM SCT250
     FM241000 00000KT 4SM BR SCT003 BKN250
     FM241300 00000KT 1SM BR BKN003 BKN250
     FM241800 VRB02KT 4SM BR BKN005 OVC015
     FM242100 VRB03KT 6SM BR SCT015 OVC025=

USA.gov is the U.S. government's official web portal to all federal, state and local government web resources and services.